createdAt,value
2022-08-14T00:02:22.251Z,2.80
2022-08-14T00:04:51.241Z,3.00
2022-08-14T00:07:18.277Z,3.13
2022-08-14T00:10:02.269Z,3.28
2022-08-14T00:12:53.260Z,3.00
2022-08-14T00:15:37.364Z,3.22
2022-08-14T00:18:14.637Z,3.70
2022-08-14T00:20:58.859Z,3.15
2022-08-14T00:23:25.981Z,3.08
2022-08-14T00:26:05.639Z,2.70
2022-08-14T00:28:35.279Z,3.25
2022-08-14T00:31:02.723Z,3.40
2022-08-14T00:33:51.038Z,2.90
2022-08-14T00:36:48.292Z,3.53
2022-08-14T00:39:04.582Z,3.10
2022-08-14T00:41:34.019Z,3.03
2022-08-14T00:44:01.462Z,3.03
2022-08-14T00:46:33.158Z,3.17
2022-08-14T00:49:00.834Z,3.40
2022-08-14T00:51:37.642Z,3.03
2022-08-14T00:54:20.858Z,2.90
2022-08-14T00:56:55.097Z,3.28
2022-08-14T00:59:25.221Z,2.80
2022-08-14T01:01:54.519Z,2.80
2022-08-14T01:04:52.288Z,3.35
2022-08-14T01:07:10.244Z,3.05
2022-08-14T01:09:37.627Z,3.20
2022-08-14T01:12:06.537Z,2.75
2022-08-14T01:14:35.738Z,3.28
2022-08-14T01:17:11.341Z,3.50
2022-08-14T01:19:57.085Z,2.85
2022-08-14T01:22:26.951Z,2.97
2022-08-14T01:24:57.381Z,3.30
2022-08-14T01:27:25.893Z,3.05
2022-08-14T01:30:01.451Z,3.88
2022-08-14T01:32:45.273Z,3.47
2022-08-14T01:36:03.235Z,3.00
2022-08-14T01:38:05.762Z,3.40
2022-08-14T01:40:36.919Z,3.05
2022-08-14T01:43:14.585Z,3.50
2022-08-14T01:45:48.969Z,2.92
2022-08-14T01:48:16.156Z,3.20
2022-08-14T01:50:47.790Z,3.00
2022-08-14T01:53:15.488Z,3.67
2022-08-14T01:55:42.652Z,2.97
2022-08-14T01:58:28.547Z,3.10
2022-08-14T02:00:57.871Z,2.90
2022-08-14T02:03:29.992Z,3.20
2022-08-14T02:06:03.875Z,3.08
2022-08-14T02:08:52.921Z,3.10
2022-08-14T02:11:23.968Z,3.17
2022-08-14T02:14:14.143Z,3.38
2022-08-14T02:16:48.204Z,3.13
2022-08-14T02:19:19.017Z,3.45
2022-08-14T02:21:50.602Z,3.50
2022-08-14T02:24:39.068Z,3.10
2022-08-14T02:28:24.819Z,3.10
2022-08-14T02:30:01.126Z,3.05
2022-08-14T02:32:36.728Z,3.70
2022-08-14T02:35:17.762Z,3.38
2022-08-14T02:37:49.816Z,3.45
2022-08-14T02:40:19.779Z,3.03
2022-08-14T02:42:54.223Z,3.20
2022-08-14T02:45:22.301Z,3.38
2022-08-14T02:47:53.744Z,3.40
2022-08-14T02:50:26.993Z,2.78
2022-08-14T02:52:57.368Z,3.45
2022-08-14T02:55:43.722Z,2.70
2022-08-14T02:58:10.687Z,3.10
2022-08-14T03:00:49.534Z,3.33
2022-08-14T03:03:17.276Z,3.25
2022-08-14T03:05:44.243Z,3.50
2022-08-14T03:08:15.891Z,2.92
2022-08-14T03:10:48.916Z,3.28
2022-08-14T03:13:19.313Z,3.47
2022-08-14T03:15:55.489Z,2.92
2022-08-14T03:18:31.511Z,3.10
2022-08-14T03:21:05.963Z,3.20
2022-08-14T03:23:38.597Z,2.97
2022-08-14T03:26:18.222Z,3.20
2022-08-14T03:28:56.737Z,3.20
2022-08-14T03:31:28.511Z,3.00
2022-08-14T03:34:00.113Z,3.28
2022-08-14T03:39:09.431Z,3.50
2022-08-14T03:39:22.533Z,3.13
2022-08-14T03:41:53.761Z,3.10
2022-08-14T03:45:25.240Z,3.28
2022-08-14T03:47:08.116Z,3.28
2022-08-14T03:49:40.394Z,3.30
2022-08-14T03:52:38.368Z,3.28
2022-08-14T03:54:59.221Z,3.15
2022-08-14T03:57:26.374Z,3.47
2022-08-14T03:59:53.501Z,3.60
2022-08-14T04:02:32.600Z,3.10
2022-08-14T04:05:12.220Z,3.10
2022-08-14T04:07:41.477Z,2.83
2022-08-14T04:10:17.528Z,3.08
2022-08-14T04:12:53.372Z,3.30
2022-08-14T04:15:23.597Z,3.50
2022-08-14T04:17:50.353Z,3.22
2022-08-14T04:20:25.808Z,3.00
2022-08-14T04:22:55.553Z,3.00
2022-08-14T04:25:22.821Z,3.70
2022-08-14T04:28:03.387Z,3.35
2022-08-14T04:30:32.836Z,3.67
2022-08-14T04:33:06.386Z,3.30
2022-08-14T04:35:55.395Z,2.90
2022-08-14T04:38:42.270Z,3.20
2022-08-14T04:41:30.236Z,3.30
2022-08-14T04:43:58.017Z,3.10
2022-08-14T04:46:56.851Z,3.08
2022-08-14T04:49:15.276Z,3.90
2022-08-14T04:51:46.884Z,3.55
2022-08-14T04:54:28.415Z,3.30
2022-08-14T04:56:56.222Z,2.72
2022-08-14T04:59:24.818Z,2.83
2022-08-14T05:01:56.507Z,3.15
2022-08-14T05:04:25.262Z,2.70
2022-08-14T05:06:55.387Z,3.00
2022-08-14T05:09:29.305Z,2.50
2022-08-14T05:11:59.380Z,2.55
2022-08-14T05:15:07.952Z,2.42
2022-08-14T05:17:53.853Z,2.60
2022-08-14T05:21:10.993Z,3.13
2022-08-14T05:23:23.459Z,2.80
2022-08-14T05:25:54.794Z,2.75
2022-08-14T05:28:24.151Z,2.70
2022-08-14T05:30:56.554Z,2.70
2022-08-14T05:33:30.189Z,2.58
2022-08-14T05:36:02.457Z,2.50
2022-08-14T05:38:35.266Z,2.40
2022-08-14T05:41:06.389Z,2.40
2022-08-14T05:43:41.285Z,2.75
2022-08-14T05:46:15.436Z,2.55
2022-08-14T05:48:43.231Z,2.20
2022-08-14T05:51:10.690Z,3.05
2022-08-14T05:54:26.562Z,2.30
2022-08-14T05:56:54.328Z,2.33
2022-08-14T05:59:36.872Z,3.28
2022-08-14T06:02:10.970Z,2.47
2022-08-14T06:04:39.460Z,2.25
2022-08-14T06:07:09.632Z,2.38
2022-08-14T06:09:40.546Z,2.70
2022-08-14T06:12:09.363Z,2.53
2022-08-14T06:14:37.284Z,2.40
2022-08-14T06:17:05.975Z,2.75
2022-08-14T06:19:32.879Z,2.30
2022-08-14T06:21:59.833Z,2.45
2022-08-14T06:24:30.628Z,2.20
2022-08-14T06:27:04.510Z,2.30
2022-08-14T06:29:34.746Z,2.50
2022-08-14T06:32:36.759Z,2.50
2022-08-14T06:35:02.442Z,2.33
2022-08-14T06:37:45.496Z,2.67
2022-08-14T06:40:16.795Z,2.08
2022-08-14T06:42:57.166Z,2.47
2022-08-14T06:45:27.648Z,2.42
2022-08-14T06:47:54.685Z,1.90
2022-08-14T06:50:27.731Z,2.03
2022-08-14T06:53:00.424Z,2.35
2022-08-14T06:55:28.275Z,2.20
2022-08-14T06:57:59.986Z,2.20
2022-08-14T07:00:31.216Z,2.20
2022-08-14T07:03:19.190Z,2.20
2022-08-14T07:05:55.529Z,2.10
2022-08-14T07:08:31.906Z,2.40
2022-08-14T07:11:04.056Z,2.20
2022-08-14T07:13:31.146Z,2.05
2022-08-14T07:16:00.550Z,2.20
2022-08-14T07:18:30.235Z,2.17
2022-08-14T07:20:58.913Z,2.13
2022-08-14T07:23:31.094Z,2.10
2022-08-14T07:26:02.191Z,2.22
2022-08-14T07:28:35.917Z,2.42
2022-08-14T07:31:11.590Z,2.40
2022-08-14T07:33:50.568Z,2.38
2022-08-14T07:36:26.957Z,2.45
2022-08-14T07:39:11.967Z,2.33
2022-08-14T07:41:39.406Z,2.28
2022-08-14T07:44:29.022Z,2.40
2022-08-14T07:46:58.106Z,2.80
2022-08-14T07:49:25.637Z,2.65
2022-08-14T07:51:52.482Z,2.17
2022-08-14T07:54:23.384Z,2.78
2022-08-14T07:57:11.818Z,2.63
2022-08-14T07:59:43.735Z,2.47
2022-08-14T08:02:17.397Z,2.30
2022-08-14T08:04:49.372Z,2.20
2022-08-14T08:07:16.528Z,2.80
2022-08-14T08:09:51.062Z,2.83
2022-08-14T08:12:22.260Z,2.60
2022-08-14T08:14:56.714Z,2.38
2022-08-14T08:17:34.901Z,2.67
2022-08-14T08:20:12.047Z,2.35
2022-08-14T08:22:40.889Z,2.17
2022-08-14T08:25:13.745Z,2.30
2022-08-14T08:27:44.917Z,2.55
2022-08-14T08:30:12.475Z,2.53
2022-08-14T08:32:43.752Z,2.67
2022-08-14T08:35:18.523Z,2.88
2022-08-14T08:37:45.219Z,2.47
2022-08-14T08:40:36.221Z,2.70
2022-08-14T08:43:23.720Z,2.70
2022-08-14T08:46:18.541Z,2.75
2022-08-14T08:48:52.190Z,3.10
2022-08-14T08:51:34.406Z,2.90
2022-08-14T08:54:04.315Z,2.83
2022-08-14T08:56:40.071Z,3.40
2022-08-14T08:59:20.418Z,3.10
2022-08-14T09:01:59.743Z,2.47
2022-08-14T09:04:30.968Z,2.90
2022-08-14T09:07:09.445Z,3.00
2022-08-14T09:09:54.360Z,2.83
2022-08-14T09:12:26.897Z,2.97
2022-08-14T09:14:54.689Z,2.92
2022-08-14T09:17:25.947Z,3.05
2022-08-14T09:19:53.709Z,2.80
2022-08-14T09:22:34.861Z,3.30
2022-08-14T09:25:07.238Z,3.38
2022-08-14T09:27:35.674Z,3.05
2022-08-14T09:30:30.957Z,3.30
2022-08-14T09:33:08.910Z,2.83
2022-08-14T09:35:57.585Z,3.50
2022-08-14T09:38:47.528Z,3.15
2022-08-14T09:42:20.028Z,3.58
2022-08-14T09:44:46.082Z,2.80
2022-08-14T09:47:17.004Z,3.20
2022-08-14T09:49:52.074Z,3.05
2022-08-14T09:52:33.011Z,3.60
2022-08-14T09:55:02.736Z,3.15
2022-08-14T09:57:31.558Z,3.30
2022-08-14T09:59:58.827Z,3.58
2022-08-14T10:02:34.463Z,3.03
2022-08-14T10:05:09.778Z,3.55
2022-08-14T10:07:53.846Z,3.38
2022-08-14T10:14:53.466Z,3.88
2022-08-14T10:17:27.579Z,3.33
2022-08-14T10:20:00.145Z,3.70
2022-08-14T10:23:21.765Z,3.58
2022-08-14T10:25:22.515Z,3.90
2022-08-14T10:27:58.492Z,3.85
2022-08-14T10:30:35.031Z,3.58
2022-08-14T10:33:02.353Z,3.60
2022-08-14T10:35:40.811Z,4.38
2022-08-14T10:38:14.854Z,3.90
2022-08-14T10:40:52.195Z,4.00
2022-08-14T10:43:26.460Z,4.15
2022-08-14T10:46:59.235Z,4.18
2022-08-14T10:49:06.522Z,4.10
2022-08-14T10:51:39.896Z,4.05
2022-08-14T10:54:16.328Z,4.10
2022-08-14T10:57:26.652Z,3.90
2022-08-14T10:59:57.927Z,3.92
2022-08-14T11:02:53.996Z,4.20
2022-08-14T11:05:20.598Z,4.40
2022-08-14T11:07:56.876Z,4.53
2022-08-14T11:10:46.498Z,4.25
2022-08-14T11:13:21.374Z,4.63
2022-08-14T11:15:52.697Z,5.05
2022-08-14T11:18:30.204Z,4.53
2022-08-14T11:21:02.026Z,4.93
2022-08-14T11:23:38.201Z,4.93
2022-08-14T11:26:11.429Z,5.03
2022-08-14T11:28:47.543Z,5.25
2022-08-14T11:31:20.192Z,4.80
2022-08-14T11:33:56.870Z,4.60
2022-08-14T11:36:35.391Z,5.15
2022-08-14T11:39:33.457Z,4.55
2022-08-14T11:42:55.201Z,5.15
2022-08-14T11:44:53.775Z,4.63
2022-08-14T11:47:24.722Z,5.07
2022-08-14T11:49:52.018Z,5.00
2022-08-14T11:52:19.370Z,4.95
2022-08-14T11:54:58.449Z,4.88
2022-08-14T11:57:25.689Z,5.10
2022-08-14T12:00:05.330Z,5.03
2022-08-14T12:03:03.037Z,4.53
2022-08-14T12:05:35.938Z,4.45
2022-08-14T12:08:12.128Z,4.35
2022-08-14T12:10:43.533Z,4.28
2022-08-14T12:13:19.087Z,4.72
2022-08-14T12:16:01.074Z,4.65
2022-08-14T12:18:38.577Z,4.30
2022-08-14T12:21:19.384Z,4.10
2022-08-14T12:24:08.931Z,4.07
2022-08-14T12:26:57.800Z,4.15
2022-08-14T12:29:25.650Z,4.13
2022-08-14T12:32:06.636Z,4.00
2022-08-14T12:34:37.083Z,3.90
2022-08-14T12:37:08.882Z,4.32
2022-08-14T12:39:39.811Z,3.80
2022-08-14T12:42:08.013Z,3.92
2022-08-14T12:44:37.578Z,4.53
2022-08-14T12:47:06.275Z,4.18
2022-08-14T12:49:34.201Z,3.88
2022-08-14T12:52:02.942Z,4.03
2022-08-14T12:54:32.088Z,4.00
2022-08-14T12:57:19.394Z,3.70
2022-08-14T12:59:47.570Z,3.90
2022-08-14T13:02:25.662Z,4.50
2022-08-14T13:04:55.751Z,3.80
2022-08-14T13:07:24.165Z,4.40
2022-08-14T13:10:00.528Z,4.30
2022-08-14T13:13:12.082Z,4.70
2022-08-14T13:15:38.161Z,4.40
2022-08-14T13:18:10.594Z,4.28
2022-08-14T13:20:37.816Z,4.50
2022-08-14T13:23:06.167Z,4.10
2022-08-14T13:25:35.375Z,4.10
2022-08-14T13:28:04.304Z,3.90
2022-08-14T13:30:41.454Z,4.03
2022-08-14T13:33:14.775Z,4.00
2022-08-14T13:35:47.589Z,3.95
2022-08-14T13:38:20.784Z,3.72
2022-08-14T13:40:55.952Z,3.78
2022-08-14T13:43:24.794Z,4.07
2022-08-14T13:46:00.290Z,4.47
2022-08-14T13:48:33.431Z,3.78
2022-08-14T13:51:07.923Z,3.70
2022-08-14T13:54:06.939Z,3.67
2022-08-14T13:56:37.595Z,3.95
2022-08-14T13:59:06.380Z,3.55
2022-08-14T14:05:03.594Z,3.13
2022-08-14T14:07:33.763Z,3.60
2022-08-14T14:10:09.692Z,3.38
2022-08-14T14:12:41.406Z,3.05
2022-08-14T14:15:12.312Z,3.45
2022-08-14T14:17:40.199Z,3.58
2022-08-14T14:20:15.246Z,3.17
2022-08-14T14:23:03.417Z,3.35
2022-08-14T14:25:48.666Z,3.10
2022-08-14T14:28:31.738Z,3.13
2022-08-14T14:31:07.006Z,3.10
2022-08-14T14:33:51.089Z,3.38
2022-08-14T14:36:21.719Z,2.90
2022-08-14T14:38:52.707Z,3.38
2022-08-14T14:41:22.481Z,2.70
2022-08-14T14:43:51.651Z,3.20
2022-08-14T14:46:36.348Z,3.53
2022-08-14T14:49:06.731Z,3.42
2022-08-14T14:51:41.101Z,3.13
2022-08-14T14:54:10.387Z,2.88
2022-08-14T14:56:50.220Z,3.15
2022-08-14T14:59:19.894Z,3.08
2022-08-14T15:01:50.907Z,2.88
2022-08-14T15:04:20.688Z,3.05
2022-08-14T15:06:48.309Z,3.20
2022-08-14T15:09:17.698Z,3.22
2022-08-14T15:11:47.109Z,3.10
2022-08-14T15:14:55.589Z,2.95
2022-08-14T15:17:06.469Z,2.90
2022-08-14T15:19:33.387Z,3.13
2022-08-14T15:22:00.332Z,2.78
2022-08-14T15:24:27.376Z,3.10
2022-08-14T15:26:58.484Z,3.58
2022-08-14T15:29:26.120Z,3.40
2022-08-14T15:31:53.983Z,3.22
2022-08-14T15:34:43.025Z,2.97
2022-08-14T15:37:13.127Z,3.50
2022-08-14T15:39:44.803Z,3.10
2022-08-14T15:42:16.357Z,3.10
2022-08-14T15:44:57.768Z,3.08
2022-08-14T15:47:30.027Z,3.22
2022-08-14T15:50:05.812Z,2.80
2022-08-14T15:52:45.270Z,2.88
2022-08-14T15:55:15.335Z,2.88
2022-08-14T15:58:02.255Z,3.05
2022-08-14T16:00:53.157Z,3.15
2022-08-14T16:03:24.997Z,3.00
2022-08-14T16:06:01.317Z,3.17
2022-08-14T16:08:30.122Z,3.33
2022-08-14T16:11:04.687Z,3.10
2022-08-14T16:13:41.812Z,3.05
2022-08-14T16:16:34.472Z,3.35
2022-08-14T16:19:07.535Z,3.45
2022-08-14T16:22:01.659Z,3.60
2022-08-14T16:24:59.905Z,3.47
2022-08-14T16:27:37.145Z,3.20
2022-08-14T16:30:24.591Z,3.55
2022-08-14T16:33:00.908Z,3.15
2022-08-14T16:35:42.526Z,3.08
2022-08-14T16:38:46.418Z,3.40
2022-08-14T16:41:18.093Z,3.40
2022-08-14T16:43:59.448Z,3.13
2022-08-14T16:49:21.316Z,3.17
2022-08-14T16:54:48.293Z,3.17
2022-08-14T17:03:08.417Z,3.15
2022-08-14T17:05:43.431Z,3.45
2022-08-14T17:11:10.984Z,3.33
2022-08-14T17:13:57.760Z,3.30
2022-08-14T17:16:30.982Z,3.25
2022-08-14T17:19:01.636Z,3.13
2022-08-14T17:21:35.399Z,3.47
2022-08-14T17:24:58.318Z,3.22
2022-08-14T17:27:00.153Z,3.30
2022-08-14T17:29:33.920Z,3.10
2022-08-14T17:32:28.356Z,3.00
2022-08-14T17:34:55.237Z,2.90
2022-08-14T17:37:34.301Z,2.80
2022-08-14T17:40:25.873Z,2.95
2022-08-14T17:43:02.135Z,2.85
2022-08-14T17:45:41.170Z,2.88
2022-08-14T17:49:10.772Z,2.97
2022-08-14T17:51:23.354Z,2.58
2022-08-14T17:54:02.269Z,2.60
2022-08-14T17:56:34.153Z,3.03
2022-08-14T17:59:06.202Z,3.55
2022-08-14T18:01:45.749Z,2.80
2022-08-14T18:04:28.781Z,3.47
2022-08-14T18:07:08.760Z,3.95
2022-08-14T18:09:57.334Z,2.60
2022-08-14T18:12:37.201Z,2.58
2022-08-14T18:15:16.646Z,2.40
2022-08-14T18:17:53.240Z,2.50
2022-08-14T18:21:39.796Z,2.72
2022-08-14T18:23:13.656Z,2.33
2022-08-14T18:25:54.441Z,2.50
2022-08-14T18:28:48.523Z,2.55
2022-08-14T18:31:21.557Z,2.60
2022-08-14T18:34:11.847Z,2.47
2022-08-14T18:36:55.389Z,2.30
2022-08-14T18:39:29.611Z,2.72
2022-08-14T18:42:05.409Z,2.38
2022-08-14T18:44:50.699Z,2.40
2022-08-14T18:47:17.516Z,2.40
2022-08-14T18:49:54.334Z,2.10
2022-08-14T18:52:39.245Z,2.75
2022-08-14T18:55:18.439Z,2.28
2022-08-14T18:58:26.562Z,2.60
2022-08-14T19:00:56.016Z,2.55
2022-08-14T19:03:37.516Z,2.70
2022-08-14T19:06:07.155Z,2.45
2022-08-14T19:08:52.489Z,2.47
2022-08-14T19:11:32.134Z,2.15
2022-08-14T19:14:04.768Z,2.30
2022-08-14T19:16:42.897Z,2.28
2022-08-14T19:19:11.933Z,2.42
2022-08-14T19:21:56.081Z,2.33
2022-08-14T19:24:43.947Z,2.50
2022-08-14T19:27:37.551Z,2.63
2022-08-14T19:30:20.081Z,2.50
2022-08-14T19:32:55.945Z,2.20
2022-08-14T19:35:48.795Z,2.40
2022-08-14T19:38:46.384Z,2.78
2022-08-14T19:41:19.478Z,2.55
2022-08-14T19:43:56.727Z,2.35
2022-08-14T19:46:37.784Z,2.33
2022-08-14T19:49:06.760Z,2.85
2022-08-14T19:51:50.953Z,2.60
2022-08-14T19:54:18.398Z,2.50
2022-08-14T19:56:46.748Z,2.47
2022-08-14T19:59:21.595Z,2.42
2022-08-14T20:01:54.109Z,2.53
2022-08-14T20:04:47.644Z,2.20
2022-08-14T20:07:59.693Z,2.28
2022-08-14T20:11:05.638Z,2.40
2022-08-14T20:13:32.277Z,2.45
2022-08-14T20:16:11.789Z,2.40
2022-08-14T20:18:51.796Z,2.70
2022-08-14T20:21:21.383Z,2.40
2022-08-14T20:23:49.943Z,2.20
2022-08-14T20:26:32.031Z,2.60
2022-08-14T20:29:04.938Z,2.47
2022-08-14T20:31:36.911Z,2.30
2022-08-14T20:34:16.029Z,3.08
2022-08-14T20:37:16.400Z,2.53
2022-08-14T20:39:54.626Z,2.40
2022-08-14T20:42:43.890Z,2.60
2022-08-14T20:45:24.819Z,2.50
2022-08-14T20:48:01.008Z,2.47
2022-08-14T20:50:29.886Z,2.63
2022-08-14T20:53:06.005Z,2.58
2022-08-14T20:55:41.501Z,2.55
2022-08-14T20:58:43.127Z,2.42
2022-08-14T21:01:14.037Z,2.50
2022-08-14T21:03:56.311Z,2.85
2022-08-14T21:07:22.014Z,2.40
2022-08-14T21:09:43.952Z,2.60
2022-08-14T21:12:34.745Z,2.70
2022-08-14T21:14:59.987Z,2.47
2022-08-14T21:17:27.633Z,2.78
2022-08-14T21:19:54.498Z,2.92
2022-08-14T21:22:21.447Z,2.80
2022-08-14T21:24:48.437Z,2.60
2022-08-14T21:27:20.311Z,2.60
2022-08-14T21:29:55.744Z,2.42
2022-08-14T21:32:36.525Z,2.70
2022-08-14T21:35:17.096Z,2.70
2022-08-14T21:37:46.005Z,2.95
2022-08-14T21:40:29.673Z,2.45
2022-08-14T21:43:04.934Z,2.60
2022-08-14T21:45:35.796Z,2.90
2022-08-14T21:48:10.689Z,3.05
2022-08-14T21:51:00.845Z,2.58
2022-08-14T21:53:31.124Z,2.78
2022-08-14T21:55:58.518Z,2.97
2022-08-14T21:58:52.899Z,2.78
2022-08-14T22:01:17.306Z,3.30
2022-08-14T22:03:46.884Z,2.78
2022-08-14T22:06:28.785Z,2.78
2022-08-14T22:08:58.168Z,2.70
2022-08-14T22:11:25.939Z,3.58
2022-08-14T22:13:56.141Z,2.85
2022-08-14T22:17:01.729Z,3.15
2022-08-14T22:19:19.545Z,3.03
2022-08-14T22:21:48.974Z,3.30
2022-08-14T22:24:37.675Z,2.83
2022-08-14T22:27:06.924Z,3.00
2022-08-14T22:29:34.396Z,3.20
2022-08-14T22:32:01.873Z,3.13
2022-08-14T22:34:33.865Z,3.20
2022-08-14T22:37:01.590Z,3.30
2022-08-14T22:40:17.599Z,3.03
2022-08-14T22:42:22.575Z,3.05
2022-08-14T22:44:51.550Z,3.25
2022-08-14T22:47:24.797Z,3.50
2022-08-14T22:50:29.345Z,2.78
2022-08-14T22:52:39.511Z,3.08
2022-08-14T22:55:07.509Z,2.78
2022-08-14T22:57:41.773Z,2.75
2022-08-14T23:00:25.484Z,3.40
2022-08-14T23:03:00.458Z,3.10
2022-08-14T23:05:39.162Z,3.65
2022-08-14T23:08:58.527Z,3.22
2022-08-14T23:11:06.368Z,3.13
2022-08-14T23:13:33.256Z,3.03
2022-08-14T23:16:00.405Z,3.70
2022-08-14T23:18:29.464Z,3.13
2022-08-14T23:20:57.428Z,3.55
2022-08-14T23:23:24.398Z,3.05
2022-08-14T23:25:58.267Z,3.38
2022-08-14T23:28:33.865Z,3.75
2022-08-14T23:31:34.467Z,3.10
2022-08-14T23:34:08.917Z,3.20
2022-08-14T23:36:53.522Z,3.63
2022-08-14T23:39:31.441Z,3.42
2022-08-14T23:42:06.323Z,3.83
2022-08-14T23:44:37.780Z,3.50
2022-08-14T23:47:11.958Z,4.20
2022-08-14T23:50:00.844Z,3.72
2022-08-14T23:52:50.841Z,3.85
2022-08-14T23:55:17.083Z,4.10
2022-08-14T23:57:58.313Z,3.50
